createdAt,value
2023-04-01T00:02:35.292Z,11.24
2023-04-01T00:05:38.329Z,11.19
2023-04-01T00:08:41.423Z,11.09
2023-04-01T00:11:45.556Z,10.90
2023-04-01T00:14:48.691Z,10.73
2023-04-01T00:17:51.510Z,10.64
2023-04-01T00:20:54.527Z,10.62
2023-04-01T00:23:57.371Z,10.60
2023-04-01T00:27:01.053Z,10.45
2023-04-01T00:30:04.734Z,10.36
2023-04-01T00:33:07.894Z,10.22
2023-04-01T00:36:17.095Z,10.13
2023-04-01T00:39:23.449Z,10.11
2023-04-01T00:42:26.867Z,10.07
2023-04-01T00:45:32.518Z,10.15
2023-04-01T00:48:39.420Z,10.27
2023-04-01T00:51:44.102Z,10.17
2023-04-01T00:54:49.189Z,10.10
2023-04-01T00:57:54.965Z,10.16
2023-04-01T01:01:00.416Z,10.26
2023-04-01T01:04:03.445Z,10.35
2023-04-01T01:07:28.056Z,10.42
2023-04-01T01:10:40.481Z,10.56
2023-04-01T01:13:57.598Z,10.63
2023-04-01T01:17:19.286Z,10.85
2023-04-01T01:20:50.852Z,10.80
2023-04-01T01:24:08.750Z,10.89
2023-04-01T01:27:15.295Z,11.17
2023-04-01T01:30:59.080Z,11.09
2023-04-01T01:34:21.466Z,10.97
2023-04-01T01:37:28.400Z,10.97
2023-04-01T01:40:34.318Z,11.16
2023-04-01T01:43:43.193Z,11.06
2023-04-01T01:46:48.791Z,11.03
2023-04-01T01:49:53.262Z,11.12
2023-04-01T01:53:08.228Z,11.30
2023-04-01T01:56:16.737Z,11.35
2023-04-01T01:59:22.083Z,11.30
2023-04-01T02:02:26.758Z,11.23
2023-04-01T02:05:32.147Z,11.27
2023-04-01T02:08:41.392Z,11.25
2023-04-01T02:11:52.224Z,11.28
2023-04-01T02:15:07.497Z,11.37
2023-04-01T02:18:13.107Z,11.30
2023-04-01T02:21:16.934Z,11.42
2023-04-01T02:24:23.435Z,11.37
2023-04-01T02:27:26.956Z,11.38
2023-04-01T02:30:32.891Z,11.35
2023-04-01T02:33:36.542Z,11.35
2023-04-01T02:36:39.586Z,11.38
2023-04-01T02:39:43.741Z,11.41
2023-04-01T02:42:50.437Z,11.43
2023-04-01T02:45:53.692Z,11.37
2023-04-01T02:48:56.299Z,11.35
2023-04-01T02:52:00.667Z,11.27
2023-04-01T02:55:03.739Z,11.27
2023-04-01T02:58:07.490Z,11.31
2023-04-01T03:01:10.478Z,11.27
2023-04-01T03:04:13.575Z,11.27
2023-04-01T03:07:16.084Z,11.25
2023-04-01T03:10:19.227Z,11.17
2023-04-01T03:13:21.758Z,11.20
2023-04-01T03:16:25.332Z,11.12
2023-04-01T03:19:28.132Z,11.11
2023-04-01T03:22:32.299Z,11.15
2023-04-01T03:25:35.227Z,11.11
2023-04-01T03:28:38.558Z,11.00
2023-04-01T03:31:41.225Z,11.05
2023-04-01T03:34:44.420Z,11.03
2023-04-01T03:37:47.103Z,10.93
2023-04-01T03:40:50.457Z,10.90
2023-04-01T03:43:54.403Z,11.14
2023-04-01T03:46:57.594Z,10.91
2023-04-01T03:50:00.463Z,10.99
2023-04-01T03:53:03.646Z,10.92
2023-04-01T03:56:07.628Z,10.93
2023-04-01T03:59:11.380Z,10.96
2023-04-01T04:02:14.024Z,10.90
2023-04-01T04:05:17.390Z,10.90
2023-04-01T04:08:22.541Z,10.82
2023-04-01T04:11:26.741Z,10.94
2023-04-01T04:14:29.297Z,10.79
2023-04-01T04:17:32.828Z,10.75
2023-04-01T04:20:36.027Z,10.69
2023-04-01T04:23:39.230Z,10.72
2023-04-01T04:26:41.885Z,10.84
2023-04-01T04:29:45.099Z,10.76
2023-04-01T04:32:47.704Z,10.86
2023-04-01T04:35:51.350Z,10.82
2023-04-01T04:38:53.916Z,10.78
2023-04-01T04:41:57.401Z,10.73
2023-04-01T04:44:59.974Z,10.71
2023-04-01T04:48:03.841Z,10.71
2023-04-01T04:51:06.945Z,10.73
2023-04-01T04:54:10.468Z,10.83
2023-04-01T04:57:15.420Z,10.78
2023-04-01T05:00:19.366Z,10.80
2023-04-01T05:03:22.641Z,10.87
2023-04-01T05:06:26.708Z,10.87
2023-04-01T05:09:29.345Z,10.91
2023-04-01T05:12:34.857Z,10.97
2023-04-01T05:15:38.307Z,11.00
2023-04-01T05:18:41.568Z,11.03
2023-04-01T05:21:44.121Z,11.13
2023-04-01T05:24:47.184Z,11.16
2023-04-01T05:27:49.728Z,11.17
2023-04-01T05:30:52.888Z,11.27
2023-04-01T05:33:56.205Z,11.37
2023-04-01T05:36:59.160Z,11.54
2023-04-01T05:40:01.843Z,11.65
2023-04-01T05:43:05.583Z,11.74
2023-04-01T05:46:08.508Z,11.71
2023-04-01T05:49:12.338Z,11.89
2023-04-01T05:52:15.596Z,11.96
2023-04-01T05:55:18.860Z,12.04
2023-04-01T05:58:21.457Z,12.11
2023-04-01T06:01:24.560Z,12.23
2023-04-01T06:04:33.433Z,12.42
2023-04-01T06:07:36.313Z,12.53
2023-04-01T06:10:39.212Z,12.48
2023-04-01T06:14:11.464Z,12.58
2023-04-01T06:17:26.703Z,12.71
2023-04-01T06:20:35.378Z,12.69
2023-04-01T06:24:06.682Z,12.71
2023-04-01T06:27:38.016Z,12.79
2023-04-01T06:30:44.916Z,12.84
2023-04-01T06:34:04.626Z,12.99
2023-04-01T06:37:16.833Z,13.11
2023-04-01T06:40:44.992Z,13.25
2023-04-01T06:44:11.176Z,13.34
2023-04-01T06:47:31.631Z,13.56
2023-04-01T06:51:02.328Z,13.68
2023-04-01T06:54:17.823Z,13.76
2023-04-01T06:57:29.613Z,13.92
2023-04-01T07:00:40.209Z,13.98
2023-04-01T07:03:54.628Z,14.13
2023-04-01T07:07:10.178Z,14.34
2023-04-01T07:10:29.173Z,14.51
2023-04-01T07:13:56.372Z,14.65
2023-04-01T07:17:07.604Z,14.80
2023-04-01T07:20:10.474Z,14.91
2023-04-01T07:23:25.446Z,15.08
2023-04-01T07:26:28.955Z,15.29
2023-04-01T07:29:34.124Z,15.54
2023-04-01T07:32:49.794Z,15.84
2023-04-01T07:36:10.993Z,16.14
2023-04-01T07:39:29.385Z,16.33
2023-04-01T07:42:55.822Z,16.69
2023-04-01T07:46:24.039Z,17.17
2023-04-01T07:49:40.579Z,17.32
2023-04-01T07:53:29.008Z,17.56
2023-04-01T07:56:57.011Z,17.83
2023-04-01T08:00:04.681Z,18.33
2023-04-01T08:03:32.176Z,18.49
2023-04-01T08:06:44.161Z,18.83
2023-04-01T08:10:06.434Z,19.09
2023-04-01T08:13:36.473Z,19.21
2023-04-01T08:17:01.834Z,19.42
2023-04-01T08:20:26.120Z,19.64
2023-04-01T08:23:38.421Z,19.79
2023-04-01T08:26:48.210Z,20.08
2023-04-01T08:30:00.972Z,19.82
2023-04-01T08:33:16.825Z,19.88
2023-04-01T08:36:55.294Z,19.73
2023-04-01T08:40:11.171Z,19.33
2023-04-01T08:43:32.315Z,19.76
2023-04-01T08:46:53.738Z,19.68
2023-04-01T08:50:25.818Z,19.70
2023-04-01T08:53:48.946Z,19.69
2023-04-01T08:57:16.606Z,19.83
2023-04-01T09:00:37.593Z,20.03
2023-04-01T09:03:56.790Z,20.28
2023-04-01T09:07:10.439Z,20.63
2023-04-01T09:10:20.293Z,20.48
2023-04-01T09:13:59.945Z,20.18
2023-04-01T09:17:05.413Z,20.51
2023-04-01T09:20:36.737Z,20.69
2023-04-01T09:23:56.353Z,20.78
2023-04-01T09:27:11.457Z,20.70
2023-04-01T09:30:14.205Z,20.61
2023-04-01T09:33:49.615Z,20.46
2023-04-01T09:37:28.349Z,20.12
2023-04-01T09:40:59.427Z,19.41
2023-04-01T09:44:07.272Z,18.70
2023-04-01T09:47:29.483Z,17.89
2023-04-01T09:50:56.716Z,17.33
2023-04-01T09:54:25.689Z,17.13
2023-04-01T09:57:42.641Z,16.87
2023-04-01T10:00:49.270Z,16.61
2023-04-01T10:04:10.856Z,16.57
2023-04-01T10:07:29.857Z,16.46
2023-04-01T10:10:47.741Z,16.48
2023-04-01T10:14:02.805Z,16.27
2023-04-01T10:17:20.497Z,16.17
2023-04-01T10:20:47.275Z,16.18
2023-04-01T10:24:13.035Z,16.31
2023-04-01T10:27:47.350Z,16.74
2023-04-01T10:31:03.237Z,16.77
2023-04-01T10:34:44.686Z,16.68
2023-04-01T10:38:03.430Z,16.51
2023-04-01T10:41:29.642Z,16.44
2023-04-01T10:44:39.819Z,16.63
2023-04-01T10:48:08.290Z,16.46
2023-04-01T10:51:49.421Z,16.48
2023-04-01T10:55:24.265Z,16.55
2023-04-01T10:59:06.924Z,17.17
2023-04-01T11:02:58.481Z,17.50
2023-04-01T11:06:33.227Z,17.68
2023-04-01T11:09:39.279Z,17.57
2023-04-01T11:13:06.646Z,17.42
2023-04-01T11:16:27.591Z,17.37
2023-04-01T11:19:49.415Z,17.29
2023-04-01T11:22:57.039Z,17.64
2023-04-01T11:26:08.791Z,18.45
2023-04-01T11:30:06.359Z,19.47
2023-04-01T11:33:28.297Z,19.72
2023-04-01T11:36:53.212Z,19.22
2023-04-01T11:40:26.664Z,18.68
2023-04-01T11:51:16.840Z,17.18
2023-04-01T11:54:53.702Z,16.66
2023-04-01T11:58:24.352Z,16.55
2023-04-01T12:01:51.152Z,16.27
2023-04-01T12:05:17.993Z,15.96
2023-04-01T12:08:42.461Z,15.66
2023-04-01T12:12:01.939Z,15.63
2023-04-01T12:15:24.863Z,15.70
2023-04-01T12:18:33.599Z,15.94
2023-04-01T12:22:02.642Z,16.23
2023-04-01T12:25:08.828Z,16.37
2023-04-01T12:28:24.313Z,16.66
2023-04-01T12:31:43.994Z,16.80
2023-04-01T12:35:24.452Z,16.99
2023-04-01T12:38:46.695Z,17.21
2023-04-01T12:42:12.266Z,17.34
2023-04-01T12:45:31.644Z,17.24
2023-04-01T12:48:54.804Z,17.27
2023-04-01T12:52:12.260Z,17.17
2023-04-01T12:55:53.769Z,17.40
2023-04-01T12:59:44.864Z,18.06
2023-04-01T13:03:02.651Z,18.42
2023-04-01T13:06:21.279Z,18.38
2023-04-01T13:09:52.062Z,18.44
2023-04-01T13:13:27.832Z,18.46
2023-04-01T13:16:38.877Z,18.67
2023-04-01T13:20:05.798Z,18.67
2023-04-01T13:23:44.391Z,18.92
2023-04-01T13:26:55.157Z,19.85
2023-04-01T13:30:16.668Z,20.26
2023-04-01T13:33:33.436Z,20.35
2023-04-01T13:36:42.241Z,20.46
2023-04-01T13:40:04.234Z,20.59
2023-04-01T13:43:29.732Z,20.72
2023-04-01T13:46:51.414Z,20.98
2023-04-01T13:50:13.345Z,20.85
2023-04-01T13:53:34.240Z,20.63
2023-04-01T13:57:02.121Z,20.53
2023-04-01T14:00:33.360Z,20.49
2023-04-01T14:03:56.086Z,20.65
2023-04-01T14:07:09.538Z,20.54
2023-04-01T14:10:29.274Z,20.51
2023-04-01T14:13:41.090Z,20.28
2023-04-01T14:16:50.419Z,19.89
2023-04-01T14:20:08.896Z,19.34
2023-04-01T14:23:17.786Z,18.96
2023-04-01T14:26:46.549Z,18.57
2023-04-01T14:30:28.990Z,18.33
2023-04-01T14:33:48.360Z,18.07
2023-04-01T14:37:08.582Z,17.84
2023-04-01T14:40:24.219Z,17.77
2023-04-01T14:43:55.062Z,17.67
2023-04-01T14:47:23.332Z,17.76
2023-04-01T14:50:30.282Z,17.81
2023-04-01T14:53:40.080Z,17.67
2023-04-01T14:56:46.116Z,17.58
2023-04-01T15:00:32.906Z,17.52
2023-04-01T15:03:36.220Z,17.68
2023-04-01T15:07:00.050Z,17.71
2023-04-01T15:10:35.953Z,17.73
2023-04-01T15:13:56.934Z,17.65
2023-04-01T15:17:15.822Z,17.56
2023-04-01T15:21:03.410Z,17.34
2023-04-01T15:24:26.174Z,17.23
2023-04-01T15:27:44.442Z,17.09
2023-04-01T15:31:00.451Z,16.99
2023-04-01T15:34:14.970Z,16.90
2023-04-01T15:37:37.204Z,16.83
2023-04-01T15:40:45.841Z,16.79
2023-04-01T15:43:52.939Z,16.78
2023-04-01T15:46:59.041Z,16.87
2023-04-01T15:50:21.514Z,16.95
2023-04-01T15:53:36.348Z,16.82
2023-04-01T15:57:01.058Z,16.63
2023-04-01T16:00:33.821Z,16.47
2023-04-01T16:03:58.606Z,16.51
2023-04-01T16:07:07.146Z,16.37
2023-04-01T16:10:29.080Z,16.48
2023-04-01T16:14:08.086Z,16.36
2023-04-01T16:17:44.507Z,16.42
2023-04-01T16:20:58.849Z,16.36
2023-04-01T16:24:15.054Z,16.19
2023-04-01T16:27:23.362Z,16.30
2023-04-01T16:30:41.069Z,16.10
2023-04-01T16:34:11.756Z,16.03
2023-04-01T16:37:21.937Z,15.99
2023-04-01T16:40:47.208Z,16.01
2023-04-01T16:43:56.443Z,16.03
2023-04-01T16:47:14.752Z,15.82
2023-04-01T16:50:26.026Z,15.78
2023-04-01T16:53:49.017Z,15.60
2023-04-01T16:56:57.467Z,15.47
2023-04-01T17:00:25.442Z,15.50
2023-04-01T17:03:43.659Z,15.37
2023-04-01T17:06:54.800Z,15.27
2023-04-01T17:10:36.107Z,15.33
2023-04-01T17:13:55.824Z,15.19
2023-04-01T17:17:23.061Z,14.99
2023-04-01T17:20:51.150Z,14.95
2023-04-01T17:24:06.387Z,14.80
2023-04-01T17:27:47.937Z,14.67
2023-04-01T17:31:22.367Z,14.59
2023-04-01T17:34:43.068Z,14.59
2023-04-01T17:37:46.724Z,14.46
2023-04-01T17:41:14.324Z,14.42
2023-04-01T17:44:43.169Z,14.40
2023-04-01T17:47:48.675Z,14.30
2023-04-01T17:51:01.236Z,14.26
2023-04-01T17:54:21.722Z,14.16
2023-04-01T17:57:59.794Z,14.09
2023-04-01T18:01:20.944Z,14.02
2023-04-01T18:05:05.760Z,13.94
2023-04-01T18:08:18.802Z,13.94
2023-04-01T18:11:29.532Z,13.87
2023-04-01T18:15:13.786Z,13.81
2023-04-01T18:18:35.519Z,13.76
2023-04-01T18:21:51.457Z,13.71
2023-04-01T18:25:12.838Z,13.78
2023-04-01T18:28:33.993Z,13.71
2023-04-01T18:31:42.458Z,13.65
2023-04-01T18:34:52.383Z,13.59
2023-04-01T18:38:05.858Z,13.59
2023-04-01T18:41:43.982Z,13.61
2023-04-01T18:44:52.266Z,13.56
2023-04-01T18:48:24.265Z,13.49
2023-04-01T18:51:54.988Z,13.43
2023-04-01T18:55:03.674Z,13.39
2023-04-01T18:58:23.848Z,13.34
2023-04-01T19:01:38.166Z,13.33
2023-04-01T19:04:47.659Z,13.30
2023-04-01T19:07:56.068Z,13.26
2023-04-01T19:10:59.100Z,13.27
2023-04-01T19:14:20.010Z,13.25
2023-04-01T19:17:45.208Z,13.21
2023-04-01T19:20:58.427Z,13.18
2023-04-01T19:24:14.178Z,13.12
2023-04-01T19:27:37.564Z,13.11
2023-04-01T19:31:04.794Z,13.11
2023-04-01T19:34:20.099Z,13.14
2023-04-01T19:37:46.024Z,13.07
2023-04-01T19:40:54.637Z,13.08
2023-04-01T19:44:18.997Z,13.02
2023-04-01T19:47:21.564Z,12.97
2023-04-01T19:50:36.393Z,12.93
2023-04-01T19:53:45.566Z,12.95
2023-04-01T19:57:00.954Z,12.93
2023-04-01T20:00:37.378Z,12.86
2023-04-01T20:04:03.505Z,12.82
2023-04-01T20:07:10.245Z,12.77
2023-04-01T20:11:01.556Z,12.73
2023-04-01T20:14:22.533Z,12.71
2023-04-01T20:17:37.730Z,12.67
2023-04-01T20:20:41.940Z,12.71
2023-04-01T20:23:52.314Z,12.64
2023-04-01T20:27:22.076Z,12.60
2023-04-01T20:30:37.543Z,12.58
2023-04-01T20:34:18.745Z,12.60
2023-04-01T20:37:36.695Z,12.61
2023-04-01T20:40:51.055Z,12.63
2023-04-01T20:44:06.092Z,12.67
2023-04-01T20:47:44.056Z,12.71
2023-04-01T20:50:52.357Z,12.68
2023-04-01T20:54:27.531Z,12.65
2023-04-01T20:57:44.064Z,12.64
2023-04-01T21:01:08.307Z,12.56
2023-04-01T21:04:27.236Z,12.51
2023-04-01T21:07:38.435Z,12.46
2023-04-01T21:10:47.903Z,12.40
2023-04-01T21:13:56.539Z,12.39
2023-04-01T21:17:05.274Z,12.37
2023-04-01T21:20:29.434Z,12.33
2023-04-01T21:24:03.237Z,12.31
2023-04-01T21:27:30.454Z,12.30
2023-04-01T21:30:41.836Z,12.29
2023-04-01T21:34:12.005Z,12.30
2023-04-01T21:37:42.469Z,12.28
2023-04-01T21:40:51.104Z,12.24
2023-04-01T21:44:10.122Z,12.31
2023-04-01T21:47:53.595Z,12.29
2023-04-01T21:51:02.709Z,12.31
2023-04-01T21:54:19.005Z,12.21
2023-04-01T21:57:47.295Z,12.21
2023-04-01T22:01:08.234Z,12.20
2023-04-01T22:04:20.763Z,12.17
2023-04-01T22:07:29.223Z,12.17
2023-04-01T22:10:42.566Z,12.16
2023-04-01T22:14:07.688Z,12.04
2023-04-01T22:17:33.207Z,12.04
2023-04-01T22:20:51.432Z,12.08
2023-04-01T22:24:28.916Z,11.97
2023-04-01T22:27:43.290Z,11.99
2023-04-01T22:30:57.550Z,11.91
2023-04-01T22:34:36.228Z,12.05
2023-04-01T22:38:05.838Z,12.02
2023-04-01T22:41:29.761Z,12.08
2023-04-01T22:44:43.692Z,12.00
2023-04-01T22:47:52.535Z,11.92
2023-04-01T22:51:09.096Z,11.85
2023-04-01T22:54:27.361Z,11.81
2023-04-01T22:57:37.964Z,11.82
2023-04-01T23:00:46.494Z,11.77
2023-04-01T23:03:52.618Z,11.79
2023-04-01T23:07:00.818Z,11.84
2023-04-01T23:10:13.058Z,11.90
2023-04-01T23:13:23.436Z,11.95
2023-04-01T23:16:34.209Z,11.83
2023-04-01T23:19:51.902Z,11.78
2023-04-01T23:23:06.905Z,11.83
2023-04-01T23:26:38.854Z,11.79
2023-04-01T23:29:43.851Z,11.67
2023-04-01T23:32:46.487Z,11.59
2023-04-01T23:36:06.194Z,11.54
2023-04-01T23:39:35.152Z,11.65
2023-04-01T23:42:42.888Z,11.57
2023-04-01T23:45:45.594Z,11.55
2023-04-01T23:48:49.974Z,11.57
2023-04-01T23:51:59.855Z,11.55
2023-04-01T23:55:12.318Z,11.39
2023-04-01T23:58:27.342Z,11.35
